createdAt,value
2018-01-24T00:00:14.790Z,27.90
2018-01-24T00:02:44.138Z,32.93
2018-01-24T00:05:14.513Z,28.50
2018-01-24T00:07:42.772Z,28.43
2018-01-24T00:10:15.052Z,32.70
2018-01-24T00:12:43.301Z,24.10
2018-01-24T00:15:14.957Z,27.87
2018-01-24T00:17:43.269Z,30.00
2018-01-24T00:20:13.884Z,30.90
2018-01-24T00:22:42.877Z,26.00
2018-01-24T00:25:14.845Z,23.07
2018-01-24T00:27:43.114Z,25.23
2018-01-24T00:30:15.321Z,29.90
2018-01-24T00:32:43.590Z,31.60
2018-01-24T00:35:17.077Z,29.47
2018-01-24T00:37:45.325Z,23.27
2018-01-24T00:40:15.953Z,19.87
2018-01-24T00:42:44.216Z,35.50
2018-01-24T00:45:14.137Z,30.80
2018-01-24T00:47:42.388Z,30.37
2018-01-24T00:50:14.689Z,29.17
2018-01-24T00:52:42.948Z,22.63
2018-01-24T00:55:15.261Z,24.70
2018-01-24T00:57:43.513Z,19.63
2018-01-24T01:00:18.852Z,25.33
2018-01-24T01:02:47.117Z,21.47
2018-01-24T01:05:15.400Z,20.13
2018-01-24T01:07:43.669Z,21.13
2018-01-24T01:10:11.923Z,20.07
2018-01-24T01:12:40.174Z,21.17
2018-01-24T01:15:14.505Z,19.40
2018-01-24T01:17:43.112Z,21.47
2018-01-24T01:20:15.839Z,26.07
2018-01-24T01:22:44.284Z,18.90
2018-01-24T01:25:15.292Z,18.53
2018-01-24T01:27:43.545Z,20.10
2018-01-24T01:30:14.864Z,20.73
2018-01-24T01:32:43.157Z,26.63
2018-01-24T01:35:14.997Z,22.97
2018-01-24T01:37:43.266Z,18.33
2018-01-24T01:40:14.849Z,22.27
2018-01-24T01:42:42.938Z,23.47
2018-01-24T01:45:15.257Z,20.23
2018-01-24T01:47:43.521Z,15.27
2018-01-24T01:50:13.004Z,18.80
2018-01-24T01:52:42.746Z,17.10
2018-01-24T01:55:14.485Z,17.33
2018-01-24T01:57:42.758Z,21.03
2018-01-24T02:00:15.043Z,16.13
2018-01-24T02:02:43.356Z,30.87
2018-01-24T02:05:14.922Z,20.83
2018-01-24T02:07:42.985Z,16.83
2018-01-24T02:10:15.021Z,22.10
2018-01-24T02:12:43.297Z,18.30
2018-01-24T02:15:15.327Z,18.77
2018-01-24T02:17:43.580Z,15.07
2018-01-24T02:20:15.256Z,15.90
2018-01-24T02:22:43.537Z,15.70
2018-01-24T02:25:14.505Z,13.83
2018-01-24T02:27:42.769Z,15.83
2018-01-24T02:30:14.965Z,18.63
2018-01-24T02:32:43.216Z,14.63
2018-01-24T02:35:14.501Z,19.77
2018-01-24T02:37:42.765Z,12.90
2018-01-24T02:40:15.363Z,14.20
2018-01-24T02:42:46.409Z,13.50
2018-01-24T02:45:14.670Z,13.50
2018-01-24T02:47:43.654Z,17.00
2018-01-24T02:50:14.540Z,16.47
2018-01-24T02:52:42.870Z,23.43
2018-01-24T02:55:15.165Z,17.80
2018-01-24T02:57:43.409Z,19.53
2018-01-24T03:00:15.564Z,16.40
2018-01-24T03:02:43.831Z,17.17
2018-01-24T03:05:15.057Z,27.13
2018-01-24T03:07:43.381Z,16.83
2018-01-24T03:10:15.148Z,15.83
2018-01-24T03:12:43.472Z,17.17
2018-01-24T03:15:15.794Z,20.80
2018-01-24T03:17:44.081Z,18.07
2018-01-24T03:20:14.664Z,17.00
2018-01-24T03:22:42.934Z,22.40
2018-01-24T03:25:14.435Z,25.60
2018-01-24T03:27:42.353Z,20.13
2018-01-24T03:30:15.083Z,23.47
2018-01-24T03:32:43.445Z,26.00
2018-01-24T03:35:14.917Z,25.27
2018-01-24T03:37:43.166Z,25.10
2018-01-24T03:40:15.369Z,20.43
2018-01-24T03:42:43.633Z,24.50
2018-01-24T03:45:14.930Z,17.43
2018-01-24T03:47:43.176Z,19.13
2018-01-24T03:50:15.341Z,20.03
2018-01-24T03:52:43.601Z,20.20
2018-01-24T03:55:15.458Z,13.53
2018-01-24T03:57:43.722Z,17.00
2018-01-24T04:00:14.993Z,18.70
2018-01-24T04:02:43.258Z,15.60
2018-01-24T04:05:15.113Z,14.07
2018-01-24T04:07:43.409Z,15.70
2018-01-24T04:10:15.172Z,13.50
2018-01-24T04:12:43.416Z,13.20
2018-01-24T04:15:14.642Z,10.83
2018-01-24T04:17:42.900Z,13.63
2018-01-24T04:20:14.964Z,9.43
2018-01-24T04:22:43.209Z,11.30
2018-01-24T04:25:15.055Z,9.67
2018-01-24T04:27:43.316Z,10.10
2018-01-24T04:30:14.626Z,11.67
2018-01-24T04:32:42.693Z,11.90
2018-01-24T04:35:15.040Z,11.97
2018-01-24T04:37:43.316Z,14.27
2018-01-24T04:40:15.052Z,11.73
2018-01-24T04:42:43.312Z,19.10
2018-01-24T04:45:15.468Z,12.30
2018-01-24T04:47:43.712Z,9.47
2018-01-24T04:50:14.953Z,10.90
2018-01-24T04:52:43.212Z,20.90
2018-01-24T04:55:15.509Z,9.07
2018-01-24T04:57:43.593Z,10.30
2018-01-24T05:00:14.829Z,14.03
2018-01-24T05:02:42.896Z,15.87
2018-01-24T05:05:15.445Z,15.13
2018-01-24T05:07:43.500Z,9.20
2018-01-24T05:10:14.534Z,10.57
2018-01-24T05:12:43.348Z,10.80
2018-01-24T05:15:12.857Z,6.97
2018-01-24T05:17:40.921Z,11.33
2018-01-24T05:20:14.564Z,8.07
2018-01-24T05:22:42.894Z,13.73
2018-01-24T05:25:15.817Z,10.50
2018-01-24T05:27:44.065Z,10.50
2018-01-24T05:30:14.705Z,10.03
2018-01-24T05:32:43.650Z,12.50
2018-01-24T05:35:11.897Z,8.73
2018-01-24T05:37:40.169Z,16.37
2018-01-24T05:40:15.101Z,8.57
2018-01-24T05:42:43.169Z,8.93
2018-01-24T05:45:13.234Z,6.03
2018-01-24T05:47:41.522Z,5.00
2018-01-24T05:50:14.661Z,5.83
2018-01-24T05:52:43.472Z,7.63
2018-01-24T05:55:15.093Z,6.50
2018-01-24T05:57:43.337Z,4.83
2018-01-24T06:00:16.569Z,5.60
2018-01-24T06:02:44.965Z,10.57
2018-01-24T06:05:16.469Z,8.17
2018-01-24T06:07:44.710Z,13.07
2018-01-24T06:10:14.137Z,14.43
2018-01-24T06:12:42.341Z,7.90
2018-01-24T06:15:16.560Z,25.07
2018-01-24T06:17:44.818Z,26.03
2018-01-24T06:20:16.657Z,18.83
2018-01-24T06:22:44.916Z,15.43
2018-01-24T06:25:15.025Z,27.43
2018-01-24T06:27:43.283Z,22.23
2018-01-24T06:30:14.694Z,25.10
2018-01-24T06:32:42.970Z,28.17
2018-01-24T06:35:15.765Z,19.77
2018-01-24T06:37:44.022Z,27.63
2018-01-24T06:40:15.290Z,19.13
2018-01-24T06:42:43.546Z,28.93
2018-01-24T06:45:14.793Z,25.00
2018-01-24T06:47:43.093Z,35.37
2018-01-24T06:50:11.513Z,22.37
2018-01-24T06:52:39.773Z,21.20
2018-01-24T06:55:15.835Z,20.10
2018-01-24T06:57:44.089Z,18.10
2018-01-24T07:00:15.353Z,26.37
2018-01-24T07:02:43.609Z,25.80
2018-01-24T07:05:15.663Z,16.80
2018-01-24T07:07:43.920Z,19.80
2018-01-24T07:10:14.865Z,18.50
2018-01-24T07:12:54.102Z,16.13
2018-01-24T07:15:22.345Z,18.97
2018-01-24T07:17:50.618Z,19.70
2018-01-24T07:20:18.877Z,15.20
2018-01-24T07:22:47.856Z,13.47
2018-01-24T07:25:16.106Z,12.70
2018-01-24T07:27:44.428Z,14.30
2018-01-24T07:30:15.564Z,16.53
2018-01-24T07:32:43.546Z,10.13
2018-01-24T07:35:15.442Z,10.90
2018-01-24T07:37:43.698Z,15.20
2018-01-24T07:40:14.978Z,11.50
2018-01-24T07:42:43.273Z,32.83
2018-01-24T07:45:14.389Z,21.77
2018-01-24T07:47:42.296Z,18.43
2018-01-24T07:50:10.557Z,11.07
2018-01-24T07:52:38.836Z,14.13
2018-01-24T07:55:15.236Z,20.13
2018-01-24T07:57:43.518Z,18.63
2018-01-24T08:00:15.170Z,14.37
2018-01-24T08:02:43.462Z,16.47
2018-01-24T08:05:15.594Z,14.10
2018-01-24T08:07:43.852Z,18.40
2018-01-24T08:10:11.930Z,12.03
2018-01-24T08:12:40.176Z,17.30
2018-01-24T08:15:14.942Z,16.20
2018-01-24T08:17:43.211Z,10.00
2018-01-24T08:20:15.110Z,16.93
2018-01-24T08:22:43.709Z,34.70
2018-01-24T08:25:11.959Z,48.07
2018-01-24T08:27:40.269Z,15.77
2018-01-24T08:30:14.596Z,9.50
2018-01-24T08:32:42.974Z,17.20
2018-01-24T08:35:15.257Z,18.53
2018-01-24T08:37:45.737Z,15.17
2018-01-24T08:40:14.933Z,13.07
2018-01-24T08:42:43.289Z,12.20
2018-01-24T08:45:14.646Z,15.43
2018-01-24T08:47:42.924Z,17.03
2018-01-24T08:50:12.176Z,13.70
2018-01-24T08:52:40.585Z,24.13
2018-01-24T08:55:08.840Z,30.83
2018-01-24T08:57:37.097Z,17.60
2018-01-24T09:00:14.069Z,15.50
2018-01-24T09:02:42.351Z,17.30
2018-01-24T09:05:12.209Z,16.33
2018-01-24T09:07:40.468Z,18.03
2018-01-24T09:10:14.506Z,23.50
2018-01-24T09:12:42.763Z,25.17
2018-01-24T09:15:14.654Z,25.00
2018-01-24T09:17:42.915Z,36.57
2018-01-24T09:20:13.386Z,26.77
2018-01-24T09:22:40.780Z,24.97
2018-01-24T09:25:09.049Z,27.97
2018-01-24T09:27:37.939Z,30.30
2018-01-24T09:30:14.114Z,38.20
2018-01-24T09:32:42.384Z,27.07
2018-01-24T09:35:15.965Z,34.17
2018-01-24T09:37:44.222Z,22.20
2018-01-24T09:40:12.484Z,27.50
2018-01-24T09:42:40.752Z,29.80
2018-01-24T09:45:09.001Z,39.73
2018-01-24T09:47:37.257Z,41.53
2018-01-24T09:50:13.505Z,37.67
2018-01-24T09:52:41.772Z,46.00
2018-01-24T09:55:10.025Z,46.57
2018-01-24T09:57:38.281Z,47.90
2018-01-24T10:00:12.900Z,47.67
2018-01-24T10:02:41.153Z,56.07
2018-01-24T10:05:12.437Z,44.73
2018-01-24T10:07:40.705Z,47.00
2018-01-24T10:10:15.389Z,43.90
2018-01-24T10:12:43.658Z,42.97
2018-01-24T10:15:11.915Z,42.37
2018-01-24T10:17:40.188Z,41.13
2018-01-24T10:20:14.841Z,47.93
2018-01-24T10:22:43.444Z,46.80
2018-01-24T10:25:16.293Z,45.63
2018-01-24T10:27:44.546Z,43.60
2018-01-24T10:30:14.580Z,43.07
2018-01-24T10:32:42.829Z,50.20
2018-01-24T10:35:14.885Z,48.77
2018-01-24T10:37:43.140Z,50.37
2018-01-24T10:40:14.499Z,46.40
2018-01-24T10:42:42.745Z,42.03
2018-01-24T10:45:14.664Z,40.90
2018-01-24T10:47:42.926Z,55.63
2018-01-24T10:50:13.681Z,52.97
2018-01-24T10:52:41.960Z,55.60
2018-01-24T10:55:16.019Z,58.97
2018-01-24T10:57:44.298Z,51.57
2018-01-24T11:00:15.699Z,61.87
2018-01-24T11:02:43.977Z,48.73
2018-01-24T11:05:17.088Z,54.03
2018-01-24T11:07:45.399Z,53.67
2018-01-24T11:10:15.694Z,63.37
2018-01-24T11:12:43.970Z,56.03
2018-01-24T11:15:14.166Z,55.87
2018-01-24T11:17:43.197Z,51.80
2018-01-24T11:20:15.654Z,53.93
2018-01-24T11:22:44.081Z,56.80
2018-01-24T11:25:15.926Z,49.70
2018-01-24T11:27:44.190Z,50.77
2018-01-24T11:30:20.799Z,50.23
2018-01-24T11:32:50.025Z,45.10
2018-01-24T11:35:18.294Z,49.37
2018-01-24T11:37:46.553Z,55.03
2018-01-24T11:40:15.098Z,47.60
2018-01-24T11:42:43.361Z,64.20
2018-01-24T11:45:15.238Z,59.37
2018-01-24T11:47:43.551Z,53.47
2018-01-24T11:50:14.939Z,55.13
2018-01-24T11:52:43.205Z,55.73
2018-01-24T11:55:16.044Z,66.80
2018-01-24T11:57:44.356Z,67.50
2018-01-24T12:00:12.638Z,67.23
2018-01-24T12:02:40.914Z,74.47
2018-01-24T12:05:16.429Z,73.13
2018-01-24T12:07:44.681Z,62.07
2018-01-24T12:10:13.450Z,63.20
2018-01-24T12:12:41.940Z,65.70
2018-01-24T12:15:13.801Z,59.47
2018-01-24T12:17:42.099Z,56.57
2018-01-24T12:20:14.735Z,70.23
2018-01-24T12:22:43.014Z,64.70
2018-01-24T12:25:14.468Z,83.40
2018-01-24T12:27:42.737Z,62.47
2018-01-24T12:30:27.199Z,61.23
2018-01-24T12:32:55.477Z,38.80
2018-01-24T12:35:23.732Z,41.80
2018-01-24T12:37:52.010Z,44.10
2018-01-24T12:40:20.265Z,39.93
2018-01-24T12:42:48.353Z,41.97
2018-01-24T12:45:16.630Z,43.67
2018-01-24T12:47:44.918Z,44.50
2018-01-24T12:50:13.204Z,41.10
2018-01-24T12:52:41.469Z,51.43
2018-01-24T12:55:14.686Z,42.40
2018-01-24T12:57:42.942Z,38.00
2018-01-24T13:00:15.130Z,41.90
2018-01-24T13:02:43.408Z,44.33
2018-01-24T13:05:11.664Z,46.57
2018-01-24T13:07:39.936Z,41.50
2018-01-24T13:10:14.565Z,54.33
2018-01-24T13:12:42.898Z,47.67
2018-01-24T13:15:14.220Z,53.50
2018-01-24T13:17:42.481Z,43.47
2018-01-24T13:20:14.361Z,45.33
2018-01-24T13:22:42.685Z,52.20
2018-01-24T13:25:11.116Z,56.07
2018-01-24T13:27:39.377Z,46.37
2018-01-24T13:30:14.397Z,46.97
2018-01-24T13:32:42.658Z,45.30
2018-01-24T13:35:15.503Z,57.23
2018-01-24T13:37:43.791Z,45.73
2018-01-24T13:40:12.057Z,52.13
2018-01-24T13:42:40.132Z,51.27
2018-01-24T13:45:12.981Z,46.60
2018-01-24T13:47:41.240Z,44.20
2018-01-24T13:50:10.109Z,45.37
2018-01-24T13:52:38.978Z,47.13
2018-01-24T13:55:14.359Z,46.87
2018-01-24T13:57:42.607Z,50.80
2018-01-24T14:00:16.093Z,45.33
2018-01-24T14:02:44.362Z,49.67
2018-01-24T14:05:14.394Z,50.67
2018-01-24T14:07:42.645Z,49.70
2018-01-24T14:10:12.401Z,40.10
2018-01-24T14:12:40.664Z,43.50
2018-01-24T14:15:14.349Z,44.80
2018-01-24T14:17:42.659Z,42.50
2018-01-24T14:20:10.905Z,45.13
2018-01-24T14:22:39.173Z,40.30
2018-01-24T14:25:13.965Z,38.87
2018-01-24T14:27:42.233Z,41.90
2018-01-24T14:30:10.503Z,46.57
2018-01-24T14:32:38.784Z,42.27
2018-01-24T14:35:08.247Z,38.30
2018-01-24T14:37:36.515Z,40.50
2018-01-24T14:40:13.001Z,47.27
2018-01-24T14:42:41.255Z,47.13
2018-01-24T14:45:09.514Z,50.93
2018-01-24T14:47:37.769Z,44.43
2018-01-24T14:50:14.141Z,51.23
2018-01-24T14:52:42.459Z,54.03
2018-01-24T14:55:14.837Z,52.80
2018-01-24T14:57:43.106Z,48.00
2018-01-24T15:00:11.353Z,47.10
2018-01-24T15:02:39.625Z,53.57
2018-01-24T15:05:14.437Z,54.30
2018-01-24T15:07:42.701Z,50.10
2018-01-24T15:10:10.966Z,46.13
2018-01-24T15:12:39.212Z,54.23
2018-01-24T15:15:10.153Z,51.33
2018-01-24T15:17:38.425Z,57.53
2018-01-24T15:20:12.793Z,54.97
2018-01-24T15:22:41.049Z,48.80
2018-01-24T15:25:12.677Z,63.00
2018-01-24T15:27:40.928Z,49.93
2018-01-24T15:30:11.065Z,52.53
2018-01-24T15:32:39.321Z,53.77
2018-01-24T15:35:10.985Z,56.10
2018-01-24T15:37:39.301Z,52.30
2018-01-24T15:40:12.201Z,50.43
2018-01-24T15:42:40.480Z,43.90
2018-01-24T15:45:16.010Z,44.53
2018-01-24T15:47:44.257Z,43.70
2018-01-24T15:50:12.509Z,45.10
2018-01-24T15:52:40.765Z,40.93
2018-01-24T15:55:14.914Z,44.30
2018-01-24T15:57:43.204Z,48.60
2018-01-24T16:00:11.457Z,48.80
2018-01-24T16:02:39.725Z,44.37
2018-01-24T16:05:14.541Z,44.70
2018-01-24T16:07:42.814Z,42.83
2018-01-24T16:10:11.064Z,46.47
2018-01-24T16:12:39.309Z,49.70
2018-01-24T16:15:14.013Z,49.27
2018-01-24T16:17:43.032Z,58.37
2018-01-24T16:20:16.117Z,46.47
2018-01-24T16:22:44.392Z,42.50
2018-01-24T16:25:17.200Z,53.70
2018-01-24T16:27:45.461Z,46.57
2018-01-24T16:30:30.937Z,44.70
2018-01-24T16:32:59.239Z,45.50
2018-01-24T16:35:27.674Z,42.17
2018-01-24T16:37:55.945Z,46.57
2018-01-24T16:40:24.212Z,47.07
2018-01-24T16:42:52.477Z,66.43
2018-01-24T16:45:20.748Z,53.70
2018-01-24T16:47:49.021Z,56.43
2018-01-24T16:50:17.273Z,51.33
2018-01-24T16:52:45.729Z,57.17
2018-01-24T16:55:15.221Z,47.97
2018-01-24T16:57:43.496Z,39.73
2018-01-24T17:00:14.599Z,42.10
2018-01-24T17:02:42.848Z,45.70
2018-01-24T17:05:14.534Z,46.07
2018-01-24T17:07:42.780Z,48.10
2018-01-24T17:10:15.358Z,53.70
2018-01-24T17:12:43.637Z,52.17
2018-01-24T17:15:15.500Z,55.17
2018-01-24T17:17:43.760Z,46.40
2018-01-24T17:20:18.297Z,47.17
2018-01-24T17:22:47.532Z,50.83
2018-01-24T17:25:15.862Z,51.17
2018-01-24T17:27:44.141Z,43.33
2018-01-24T17:30:15.582Z,49.00
2018-01-24T17:32:43.909Z,49.07
2018-01-24T17:35:15.158Z,54.80
2018-01-24T17:37:43.523Z,53.60
2018-01-24T17:40:32.998Z,52.97
2018-01-24T17:43:01.274Z,52.27
2018-01-24T17:45:29.302Z,52.80
2018-01-24T17:47:58.110Z,52.93
2018-01-24T17:50:26.372Z,50.70
2018-01-24T17:52:54.649Z,54.43
2018-01-24T17:55:22.965Z,48.13
2018-01-24T17:57:51.281Z,50.93
2018-01-24T18:00:19.538Z,47.00
2018-01-24T18:02:47.812Z,50.37
2018-01-24T18:05:16.089Z,57.40
2018-01-24T18:07:44.344Z,46.83
2018-01-24T18:10:15.500Z,47.23
2018-01-24T18:12:43.783Z,42.03
2018-01-24T18:15:12.031Z,40.53
2018-01-24T18:17:41.021Z,42.07
2018-01-24T18:20:14.486Z,48.00
2018-01-24T18:22:42.765Z,45.77
2018-01-24T18:25:11.418Z,42.33
2018-01-24T18:27:39.707Z,40.03
2018-01-24T18:30:13.798Z,55.20
2018-01-24T18:32:42.073Z,42.60
2018-01-24T18:35:14.949Z,36.03
2018-01-24T18:37:43.205Z,40.13
2018-01-24T18:40:14.529Z,40.03
2018-01-24T18:42:42.781Z,38.03
2018-01-24T18:45:15.047Z,45.50
2018-01-24T18:47:43.305Z,37.20
2018-01-24T18:50:13.733Z,42.33
2018-01-24T18:52:41.985Z,41.07
2018-01-24T18:55:10.355Z,40.47
2018-01-24T18:57:38.616Z,35.63
2018-01-24T19:00:11.282Z,44.53
2018-01-24T19:02:39.560Z,31.37
2018-01-24T19:05:08.605Z,37.37
2018-01-24T19:07:37.650Z,41.27
2018-01-24T19:10:11.423Z,36.40
2018-01-24T19:12:39.701Z,36.43
2018-01-24T19:15:14.481Z,32.03
2018-01-24T19:17:42.747Z,41.87
2018-01-24T19:20:13.678Z,35.13
2018-01-24T19:22:41.937Z,30.50
2018-01-24T19:25:14.181Z,32.50
2018-01-24T19:27:42.437Z,30.43
2018-01-24T19:30:10.805Z,40.57
2018-01-24T19:32:39.102Z,39.30
2018-01-24T19:35:10.357Z,37.00
2018-01-24T19:37:38.623Z,37.20
2018-01-24T19:40:14.281Z,44.40
2018-01-24T19:42:44.093Z,35.37
2018-01-24T19:45:16.329Z,34.37
2018-01-24T19:47:44.688Z,29.20
2018-01-24T19:50:12.965Z,36.40
2018-01-24T19:52:41.222Z,38.27
2018-01-24T19:55:15.595Z,34.77
2018-01-24T19:57:43.874Z,41.33
2018-01-24T20:00:12.192Z,35.93
2018-01-24T20:02:41.285Z,48.37
2018-01-24T20:05:09.536Z,56.20
2018-01-24T20:07:37.801Z,51.53
2018-01-24T20:10:06.598Z,36.43
2018-01-24T20:12:34.815Z,41.60
2018-01-24T20:15:08.657Z,45.77
2018-01-24T20:17:36.937Z,36.97
2018-01-24T20:20:05.405Z,38.93
2018-01-24T20:22:33.743Z,39.00
2018-01-24T20:25:04.528Z,37.10
2018-01-24T20:27:33.386Z,35.43
2018-01-24T20:30:01.660Z,37.37
2018-01-24T20:32:29.916Z,34.53
2018-01-24T20:34:58.185Z,51.47
2018-01-24T20:37:26.428Z,34.87
2018-01-24T20:39:54.688Z,30.40
2018-01-24T20:42:22.947Z,39.10
2018-01-24T20:44:50.888Z,37.40
2018-01-24T20:47:19.140Z,36.67
2018-01-24T20:49:47.388Z,33.47
2018-01-24T20:52:15.664Z,36.30
2018-01-24T20:54:43.921Z,30.97
2018-01-24T20:57:12.078Z,40.67
2018-01-24T20:59:40.330Z,43.50
2018-01-24T21:02:08.610Z,43.60
2018-01-24T21:04:36.872Z,47.50
2018-01-24T21:07:05.130Z,35.70
2018-01-24T21:09:33.405Z,49.43
2018-01-24T21:12:01.720Z,45.83
2018-01-24T21:14:30.125Z,48.87
2018-01-24T21:16:58.390Z,52.33
2018-01-24T21:19:26.641Z,49.47
2018-01-24T21:21:55.009Z,61.20
2018-01-24T21:24:23.293Z,46.90
2018-01-24T21:26:52.314Z,47.63
2018-01-24T21:32:32.176Z,43.27
2018-01-24T21:35:11.587Z,60.10
2018-01-24T21:37:39.845Z,56.87
2018-01-24T21:40:15.010Z,44.93
2018-01-24T21:42:43.289Z,41.53
2018-01-24T21:45:15.945Z,55.80
2018-01-24T21:47:44.211Z,44.63
2018-01-24T21:50:15.412Z,43.57
2018-01-24T21:52:43.899Z,31.73
2018-01-24T21:55:12.156Z,47.13
2018-01-24T21:57:40.433Z,41.63
2018-01-24T22:00:14.201Z,47.57
2018-01-24T22:02:42.465Z,41.20
2018-01-24T22:05:10.741Z,42.53
2018-01-24T22:07:39.000Z,37.00
2018-01-24T22:10:13.058Z,37.73
2018-01-24T22:12:41.313Z,38.03
2018-01-24T22:15:14.216Z,34.07
2018-01-24T22:17:42.457Z,29.67
2018-01-24T22:20:14.550Z,31.50
2018-01-24T22:22:42.806Z,34.17
2018-01-24T22:25:14.016Z,41.43
2018-01-24T22:27:42.557Z,32.57
2018-01-24T22:30:13.055Z,39.00
2018-01-24T22:32:41.469Z,30.90
2018-01-24T22:35:14.866Z,32.27
2018-01-24T22:37:43.130Z,31.37
2018-01-24T22:40:11.842Z,38.90
2018-01-24T22:42:40.117Z,38.17
2018-01-24T22:45:13.890Z,33.20
2018-01-24T22:47:42.160Z,47.03
2018-01-24T22:50:13.985Z,32.00
2018-01-24T22:52:42.245Z,29.90
2018-01-24T22:55:12.219Z,27.93
2018-01-24T22:57:40.470Z,29.37
2018-01-24T23:00:25.974Z,28.33
2018-01-24T23:02:54.847Z,27.90
2018-01-24T23:05:23.111Z,25.30
2018-01-24T23:07:51.398Z,27.40
2018-01-24T23:10:19.668Z,26.53
2018-01-24T23:12:47.925Z,25.37
2018-01-24T23:15:16.399Z,26.53
2018-01-24T23:17:45.229Z,29.03
2018-01-24T23:20:14.721Z,27.97
2018-01-24T23:22:42.990Z,26.10
2018-01-24T23:25:14.526Z,23.93
2018-01-24T23:27:42.788Z,27.73
2018-01-24T23:30:14.518Z,29.80
2018-01-24T23:32:42.796Z,27.63
2018-01-24T23:35:14.525Z,34.40
2018-01-24T23:37:42.817Z,27.50
2018-01-24T23:40:14.732Z,25.47
2018-01-24T23:42:42.989Z,27.13
2018-01-24T23:45:15.127Z,28.27
2018-01-24T23:47:43.377Z,27.93
2018-01-24T23:50:14.613Z,31.60
2018-01-24T23:52:42.882Z,25.67
2018-01-24T23:55:10.969Z,37.73
2018-01-24T23:57:39.225Z,45.37
